sensor_id;sensor_type;location;lat;lon;timestamp;P1;durP1;ratioP1;P2;durP2;ratioP2
49488;SDS011;35382;51.484;11.476;2023-07-31T00:00:11;5.18;;;2.30;;
49488;SDS011;35382;51.484;11.476;2023-07-31T00:02:36;6.07;;;2.30;;
49488;SDS011;35382;51.484;11.476;2023-07-31T00:05:02;5.97;;;1.90;;
49488;SDS011;35382;51.484;11.476;2023-07-31T00:07:28;5.32;;;1.85;;
49488;SDS011;35382;51.484;11.476;2023-07-31T00:09:53;5.80;;;1.77;;
49488;SDS011;35382;51.484;11.476;2023-07-31T00:12:19;5.55;;;1.88;;
49488;SDS011;35382;51.484;11.476;2023-07-31T00:14:45;5.60;;;1.97;;
49488;SDS011;35382;51.484;11.476;2023-07-31T00:17:10;7.05;;;2.22;;
49488;SDS011;35382;51.484;11.476;2023-07-31T00:19:36;4.47;;;1.88;;
49488;SDS011;35382;51.484;11.476;2023-07-31T00:22:01;5.63;;;2.10;;
49488;SDS011;35382;51.484;11.476;2023-07-31T00:24:26;5.57;;;1.88;;
49488;SDS011;35382;51.484;11.476;2023-07-31T00:26:52;5.97;;;2.25;;
49488;SDS011;35382;51.484;11.476;2023-07-31T00:29:18;6.93;;;2.40;;
49488;SDS011;35382;51.484;11.476;2023-07-31T00:31:43;3.77;;;1.80;;
49488;SDS011;35382;51.484;11.476;2023-07-31T00:34:09;5.40;;;1.95;;
49488;SDS011;35382;51.484;11.476;2023-07-31T00:36:34;4.90;;;2.33;;
49488;SDS011;35382;51.484;11.476;2023-07-31T00:39:00;5.78;;;2.17;;
49488;SDS011;35382;51.484;11.476;2023-07-31T00:41:25;4.97;;;2.05;;
49488;SDS011;35382;51.484;11.476;2023-07-31T00:43:50;5.18;;;1.83;;
49488;SDS011;35382;51.484;11.476;2023-07-31T00:46:16;7.43;;;2.30;;
49488;SDS011;35382;51.484;11.476;2023-07-31T00:48:41;5.88;;;1.80;;
49488;SDS011;35382;51.484;11.476;2023-07-31T00:51:08;5.78;;;1.92;;
49488;SDS011;35382;51.484;11.476;2023-07-31T00:53:33;4.18;;;1.90;;
49488;SDS011;35382;51.484;11.476;2023-07-31T00:55:59;7.40;;;2.10;;
49488;SDS011;35382;51.484;11.476;2023-07-31T00:58:25;5.55;;;2.00;;
49488;SDS011;35382;51.484;11.476;2023-07-31T01:00:51;8.57;;;2.13;;
49488;SDS011;35382;51.484;11.476;2023-07-31T01:03:17;5.07;;;2.10;;
49488;SDS011;35382;51.484;11.476;2023-07-31T01:05:44;4.68;;;1.60;;
49488;SDS011;35382;51.484;11.476;2023-07-31T01:08:35;4.38;;;2.03;;
49488;SDS011;35382;51.484;11.476;2023-07-31T01:11:12;3.97;;;1.45;;
49488;SDS011;35382;51.484;11.476;2023-07-31T01:13:40;5.13;;;1.70;;
49488;SDS011;35382;51.484;11.476;2023-07-31T01:16:06;4.50;;;1.52;;
49488;SDS011;35382;51.484;11.476;2023-07-31T01:18:31;6.15;;;1.80;;
49488;SDS011;35382;51.484;11.476;2023-07-31T01:21:03;6.63;;;1.73;;
49488;SDS011;35382;51.484;11.476;2023-07-31T01:26:30;3.58;;;1.40;;
49488;SDS011;35382;51.484;11.476;2023-07-31T01:31:47;3.33;;;1.65;;
49488;SDS011;35382;51.484;11.476;2023-07-31T01:34:15;5.25;;;1.80;;
49488;SDS011;35382;51.484;11.476;2023-07-31T01:36:43;4.47;;;1.90;;
49488;SDS011;35382;51.484;11.476;2023-07-31T01:39:09;4.60;;;1.80;;
49488;SDS011;35382;51.484;11.476;2023-07-31T01:41:34;5.47;;;2.05;;
49488;SDS011;35382;51.484;11.476;2023-07-31T01:43:59;5.93;;;2.25;;
49488;SDS011;35382;51.484;11.476;2023-07-31T01:46:25;5.18;;;1.92;;
49488;SDS011;35382;51.484;11.476;2023-07-31T01:48:50;6.25;;;2.28;;
49488;SDS011;35382;51.484;11.476;2023-07-31T01:51:16;5.60;;;2.13;;
49488;SDS011;35382;51.484;11.476;2023-07-31T01:53:41;4.65;;;2.30;;
49488;SDS011;35382;51.484;11.476;2023-07-31T01:56:07;5.13;;;2.40;;
49488;SDS011;35382;51.484;11.476;2023-07-31T01:58:33;4.88;;;2.20;;
49488;SDS011;35382;51.484;11.476;2023-07-31T02:00:58;7.38;;;2.28;;
49488;SDS011;35382;51.484;11.476;2023-07-31T02:03:24;4.88;;;1.70;;
49488;SDS011;35382;51.484;11.476;2023-07-31T02:05:51;4.97;;;1.90;;
49488;SDS011;35382;51.484;11.476;2023-07-31T02:08:19;4.68;;;1.92;;
49488;SDS011;35382;51.484;11.476;2023-07-31T02:10:45;3.75;;;1.80;;
49488;SDS011;35382;51.484;11.476;2023-07-31T02:13:10;3.88;;;2.00;;
49488;SDS011;35382;51.484;11.476;2023-07-31T02:15:36;4.03;;;2.03;;
49488;SDS011;35382;51.484;11.476;2023-07-31T02:18:01;3.60;;;2.00;;
49488;SDS011;35382;51.484;11.476;2023-07-31T02:20:27;4.95;;;1.90;;
49488;SDS011;35382;51.484;11.476;2023-07-31T02:22:52;5.85;;;2.00;;
49488;SDS011;35382;51.484;11.476;2023-07-31T02:25:18;6.68;;;2.00;;
49488;SDS011;35382;51.484;11.476;2023-07-31T02:27:44;5.78;;;2.00;;
49488;SDS011;35382;51.484;11.476;2023-07-31T02:30:10;4.90;;;2.00;;
49488;SDS011;35382;51.484;11.476;2023-07-31T02:32:36;4.83;;;1.93;;
49488;SDS011;35382;51.484;11.476;2023-07-31T02:35:01;4.57;;;2.10;;
49488;SDS011;35382;51.484;11.476;2023-07-31T02:37:27;6.20;;;2.08;;
49488;SDS011;35382;51.484;11.476;2023-07-31T02:39:53;8.70;;;2.33;;
49488;SDS011;35382;51.484;11.476;2023-07-31T02:42:18;5.75;;;2.13;;
49488;SDS011;35382;51.484;11.476;2023-07-31T02:44:44;6.75;;;2.40;;
49488;SDS011;35382;51.484;11.476;2023-07-31T02:47:10;4.17;;;2.03;;
49488;SDS011;35382;51.484;11.476;2023-07-31T02:49:35;7.10;;;2.10;;
49488;SDS011;35382;51.484;11.476;2023-07-31T02:52:01;4.57;;;2.20;;
49488;SDS011;35382;51.484;11.476;2023-07-31T02:54:26;6.68;;;2.28;;
49488;SDS011;35382;51.484;11.476;2023-07-31T02:56:54;4.68;;;2.35;;
49488;SDS011;35382;51.484;11.476;2023-07-31T02:59:20;4.93;;;2.25;;
49488;SDS011;35382;51.484;11.476;2023-07-31T03:01:46;6.38;;;2.22;;
49488;SDS011;35382;51.484;11.476;2023-07-31T03:04:11;5.15;;;2.80;;
49488;SDS011;35382;51.484;11.476;2023-07-31T03:06:37;5.15;;;2.45;;
49488;SDS011;35382;51.484;11.476;2023-07-31T03:09:02;5.75;;;2.17;;
49488;SDS011;35382;51.484;11.476;2023-07-31T03:11:28;5.57;;;2.35;;
49488;SDS011;35382;51.484;11.476;2023-07-31T03:13:53;5.32;;;2.17;;
49488;SDS011;35382;51.484;11.476;2023-07-31T03:16:18;5.28;;;2.33;;
49488;SDS011;35382;51.484;11.476;2023-07-31T03:18:44;5.00;;;2.53;;
49488;SDS011;35382;51.484;11.476;2023-07-31T03:21:09;9.43;;;2.83;;
49488;SDS011;35382;51.484;11.476;2023-07-31T03:23:35;5.50;;;2.80;;
49488;SDS011;35382;51.484;11.476;2023-07-31T03:26:01;8.88;;;3.20;;
49488;SDS011;35382;51.484;11.476;2023-07-31T03:28:28;6.05;;;2.40;;
49488;SDS011;35382;51.484;11.476;2023-07-31T03:30:54;7.45;;;2.75;;
49488;SDS011;35382;51.484;11.476;2023-07-31T03:33:19;9.65;;;2.85;;
49488;SDS011;35382;51.484;11.476;2023-07-31T03:35:45;7.03;;;2.60;;
49488;SDS011;35382;51.484;11.476;2023-07-31T03:38:11;6.40;;;2.78;;
49488;SDS011;35382;51.484;11.476;2023-07-31T03:40:37;5.72;;;2.30;;
49488;SDS011;35382;51.484;11.476;2023-07-31T03:43:02;4.38;;;2.40;;
49488;SDS011;35382;51.484;11.476;2023-07-31T03:45:27;9.90;;;2.70;;
49488;SDS011;35382;51.484;11.476;2023-07-31T03:47:56;5.85;;;2.65;;
49488;SDS011;35382;51.484;11.476;2023-07-31T03:50:24;7.35;;;2.67;;
49488;SDS011;35382;51.484;11.476;2023-07-31T03:52:50;7.75;;;2.58;;
49488;SDS011;35382;51.484;11.476;2023-07-31T03:55:15;8.07;;;2.92;;
49488;SDS011;35382;51.484;11.476;2023-07-31T03:57:41;6.03;;;2.65;;
49488;SDS011;35382;51.484;11.476;2023-07-31T04:00:06;7.10;;;3.08;;
49488;SDS011;35382;51.484;11.476;2023-07-31T04:02:40;9.30;;;3.38;;
49488;SDS011;35382;51.484;11.476;2023-07-31T04:05:06;8.60;;;3.17;;
49488;SDS011;35382;51.484;11.476;2023-07-31T04:07:32;10.95;;;3.90;;
49488;SDS011;35382;51.484;11.476;2023-07-31T04:09:58;7.63;;;2.88;;
49488;SDS011;35382;51.484;11.476;2023-07-31T04:12:23;8.45;;;3.10;;
49488;SDS011;35382;51.484;11.476;2023-07-31T04:14:49;7.40;;;2.97;;
49488;SDS011;35382;51.484;11.476;2023-07-31T04:17:14;8.95;;;3.08;;
49488;SDS011;35382;51.484;11.476;2023-07-31T04:19:40;9.40;;;3.40;;
49488;SDS011;35382;51.484;11.476;2023-07-31T04:22:05;10.27;;;3.60;;
49488;SDS011;35382;51.484;11.476;2023-07-31T04:24:30;8.95;;;3.38;;
49488;SDS011;35382;51.484;11.476;2023-07-31T04:26:56;8.40;;;2.90;;
49488;SDS011;35382;51.484;11.476;2023-07-31T04:29:21;7.70;;;3.10;;
49488;SDS011;35382;51.484;11.476;2023-07-31T04:31:47;7.32;;;3.45;;
49488;SDS011;35382;51.484;11.476;2023-07-31T04:34:15;10.90;;;4.40;;
49488;SDS011;35382;51.484;11.476;2023-07-31T04:36:42;9.68;;;3.38;;
49488;SDS011;35382;51.484;11.476;2023-07-31T04:39:08;8.35;;;3.53;;
49488;SDS011;35382;51.484;11.476;2023-07-31T04:41:33;9.38;;;3.50;;
49488;SDS011;35382;51.484;11.476;2023-07-31T04:43:58;7.80;;;3.38;;
49488;SDS011;35382;51.484;11.476;2023-07-31T04:46:24;6.93;;;3.55;;
49488;SDS011;35382;51.484;11.476;2023-07-31T04:48:49;7.95;;;3.83;;
49488;SDS011;35382;51.484;11.476;2023-07-31T04:51:15;8.98;;;3.70;;
49488;SDS011;35382;51.484;11.476;2023-07-31T04:53:40;10.10;;;4.43;;
49488;SDS011;35382;51.484;11.476;2023-07-31T04:56:05;9.55;;;3.80;;
49488;SDS011;35382;51.484;11.476;2023-07-31T04:58:31;8.50;;;3.35;;
49488;SDS011;35382;51.484;11.476;2023-07-31T05:00:56;10.10;;;3.13;;
49488;SDS011;35382;51.484;11.476;2023-07-31T05:03:22;9.07;;;3.78;;
49488;SDS011;35382;51.484;11.476;2023-07-31T05:05:49;7.30;;;3.78;;
49488;SDS011;35382;51.484;11.476;2023-07-31T05:08:15;9.50;;;3.70;;
49488;SDS011;35382;51.484;11.476;2023-07-31T05:10:40;8.00;;;3.63;;
49488;SDS011;35382;51.484;11.476;2023-07-31T05:13:06;7.00;;;3.58;;
49488;SDS011;35382;51.484;11.476;2023-07-31T05:15:31;9.38;;;3.90;;
49488;SDS011;35382;51.484;11.476;2023-07-31T05:17:56;7.43;;;3.60;;
49488;SDS011;35382;51.484;11.476;2023-07-31T05:20:22;10.43;;;3.72;;
49488;SDS011;35382;51.484;11.476;2023-07-31T05:22:47;7.72;;;3.80;;
49488;SDS011;35382;51.484;11.476;2023-07-31T05:25:13;8.45;;;3.83;;
49488;SDS011;35382;51.484;11.476;2023-07-31T05:27:39;9.25;;;3.55;;
49488;SDS011;35382;51.484;11.476;2023-07-31T05:30:04;8.95;;;3.42;;
49488;SDS011;35382;51.484;11.476;2023-07-31T05:32:32;6.43;;;3.13;;
49488;SDS011;35382;51.484;11.476;2023-07-31T05:34:57;11.38;;;3.20;;
49488;SDS011;35382;51.484;11.476;2023-07-31T05:37:23;6.63;;;3.10;;
49488;SDS011;35382;51.484;11.476;2023-07-31T05:39:49;9.23;;;3.30;;
49488;SDS011;35382;51.484;11.476;2023-07-31T05:42:14;7.45;;;3.38;;
49488;SDS011;35382;51.484;11.476;2023-07-31T05:44:40;8.32;;;3.05;;
49488;SDS011;35382;51.484;11.476;2023-07-31T05:47:05;7.10;;;3.30;;
49488;SDS011;35382;51.484;11.476;2023-07-31T05:49:31;6.80;;;3.03;;
49488;SDS011;35382;51.484;11.476;2023-07-31T05:51:56;9.00;;;3.45;;
49488;SDS011;35382;51.484;11.476;2023-07-31T05:54:21;9.65;;;3.45;;
49488;SDS011;35382;51.484;11.476;2023-07-31T05:56:47;5.35;;;2.75;;
49488;SDS011;35382;51.484;11.476;2023-07-31T05:59:13;8.20;;;3.60;;
49488;SDS011;35382;51.484;11.476;2023-07-31T06:01:40;7.95;;;3.47;;
49488;SDS011;35382;51.484;11.476;2023-07-31T06:04:06;7.32;;;2.80;;
49488;SDS011;35382;51.484;11.476;2023-07-31T06:06:31;5.88;;;3.13;;
49488;SDS011;35382;51.484;11.476;2023-07-31T06:08:56;6.18;;;2.90;;
49488;SDS011;35382;51.484;11.476;2023-07-31T06:11:22;5.93;;;2.83;;
49488;SDS011;35382;51.484;11.476;2023-07-31T06:13:47;7.50;;;2.83;;
49488;SDS011;35382;51.484;11.476;2023-07-31T06:16:13;6.65;;;3.00;;
49488;SDS011;35382;51.484;11.476;2023-07-31T06:18:38;6.88;;;2.58;;
49488;SDS011;35382;51.484;11.476;2023-07-31T06:21:04;7.65;;;2.92;;
49488;SDS011;35382;51.484;11.476;2023-07-31T06:23:30;9.98;;;2.75;;
49488;SDS011;35382;51.484;11.476;2023-07-31T06:25:56;7.45;;;3.40;;
49488;SDS011;35382;51.484;11.476;2023-07-31T06:28:21;6.10;;;2.63;;
49488;SDS011;35382;51.484;11.476;2023-07-31T06:30:52;6.63;;;2.75;;
49488;SDS011;35382;51.484;11.476;2023-07-31T06:33:17;7.18;;;3.03;;
49488;SDS011;35382;51.484;11.476;2023-07-31T06:35:42;6.15;;;2.78;;
49488;SDS011;35382;51.484;11.476;2023-07-31T06:38:08;6.25;;;2.78;;
49488;SDS011;35382;51.484;11.476;2023-07-31T06:40:33;4.97;;;2.50;;
49488;SDS011;35382;51.484;11.476;2023-07-31T06:42:59;6.93;;;3.42;;
49488;SDS011;35382;51.484;11.476;2023-07-31T06:45:24;10.50;;;2.78;;
49488;SDS011;35382;51.484;11.476;2023-07-31T06:47:49;7.53;;;2.55;;
49488;SDS011;35382;51.484;11.476;2023-07-31T06:50:15;7.80;;;2.55;;
49488;SDS011;35382;51.484;11.476;2023-07-31T06:52:40;5.80;;;2.80;;
49488;SDS011;35382;51.484;11.476;2023-07-31T06:55:19;7.00;;;2.67;;
49488;SDS011;35382;51.484;11.476;2023-07-31T06:57:46;6.40;;;2.90;;
49488;SDS011;35382;51.484;11.476;2023-07-31T07:00:12;5.50;;;2.35;;
49488;SDS011;35382;51.484;11.476;2023-07-31T07:02:39;7.35;;;2.55;;
49488;SDS011;35382;51.484;11.476;2023-07-31T07:05:04;6.05;;;2.30;;
49488;SDS011;35382;51.484;11.476;2023-07-31T07:07:31;6.80;;;2.83;;
49488;SDS011;35382;51.484;11.476;2023-07-31T07:09:56;6.57;;;2.92;;
49488;SDS011;35382;51.484;11.476;2023-07-31T07:12:22;6.82;;;2.72;;
49488;SDS011;35382;51.484;11.476;2023-07-31T07:14:47;7.88;;;3.10;;
49488;SDS011;35382;51.484;11.476;2023-07-31T07:17:15;6.32;;;2.17;;
49488;SDS011;35382;51.484;11.476;2023-07-31T07:19:40;9.27;;;2.53;;
49488;SDS011;35382;51.484;11.476;2023-07-31T07:22:09;7.07;;;2.80;;
49488;SDS011;35382;51.484;11.476;2023-07-31T07:24:37;5.15;;;2.17;;
49488;SDS011;35382;51.484;11.476;2023-07-31T07:27:02;7.25;;;2.70;;
49488;SDS011;35382;51.484;11.476;2023-07-31T07:29:29;6.25;;;2.25;;
49488;SDS011;35382;51.484;11.476;2023-07-31T07:31:55;7.85;;;2.50;;
49488;SDS011;35382;51.484;11.476;2023-07-31T07:34:23;5.18;;;2.30;;
49488;SDS011;35382;51.484;11.476;2023-07-31T07:36:51;4.70;;;2.00;;
49488;SDS011;35382;51.484;11.476;2023-07-31T07:39:16;8.65;;;2.40;;
49488;SDS011;35382;51.484;11.476;2023-07-31T07:41:42;8.15;;;2.42;;
49488;SDS011;35382;51.484;11.476;2023-07-31T07:44:07;6.40;;;2.60;;
49488;SDS011;35382;51.484;11.476;2023-07-31T07:46:35;6.78;;;2.28;;
49488;SDS011;35382;51.484;11.476;2023-07-31T07:49:00;9.07;;;2.70;;
49488;SDS011;35382;51.484;11.476;2023-07-31T07:51:26;7.80;;;3.20;;
49488;SDS011;35382;51.484;11.476;2023-07-31T07:53:51;5.72;;;2.67;;
49488;SDS011;35382;51.484;11.476;2023-07-31T07:56:17;7.05;;;2.92;;
49488;SDS011;35382;51.484;11.476;2023-07-31T07:58:42;5.45;;;2.40;;
49488;SDS011;35382;51.484;11.476;2023-07-31T08:01:08;7.30;;;2.73;;
49488;SDS011;35382;51.484;11.476;2023-07-31T08:03:33;5.45;;;2.60;;
49488;SDS011;35382;51.484;11.476;2023-07-31T08:05:59;6.35;;;2.70;;
49488;SDS011;35382;51.484;11.476;2023-07-31T08:08:25;4.57;;;2.17;;
49488;SDS011;35382;51.484;11.476;2023-07-31T08:10:51;8.83;;;2.40;;
49488;SDS011;35382;51.484;11.476;2023-07-31T08:13:16;10.50;;;2.80;;
49488;SDS011;35382;51.484;11.476;2023-07-31T08:15:42;8.97;;;2.70;;
49488;SDS011;35382;51.484;11.476;2023-07-31T08:18:07;5.15;;;2.03;;
49488;SDS011;35382;51.484;11.476;2023-07-31T08:23:00;7.13;;;2.50;;
49488;SDS011;35382;51.484;11.476;2023-07-31T08:25:25;10.18;;;2.95;;
49488;SDS011;35382;51.484;11.476;2023-07-31T08:27:50;5.30;;;2.20;;
49488;SDS011;35382;51.484;11.476;2023-07-31T08:30:16;6.78;;;2.40;;
49488;SDS011;35382;51.484;11.476;2023-07-31T08:32:41;4.68;;;2.45;;
49488;SDS011;35382;51.484;11.476;2023-07-31T08:35:07;6.43;;;2.50;;
49488;SDS011;35382;51.484;11.476;2023-07-31T08:37:32;7.53;;;2.63;;
49488;SDS011;35382;51.484;11.476;2023-07-31T08:39:57;6.43;;;2.63;;
49488;SDS011;35382;51.484;11.476;2023-07-31T08:42:23;5.43;;;2.33;;
49488;SDS011;35382;51.484;11.476;2023-07-31T08:44:49;7.82;;;2.72;;
49488;SDS011;35382;51.484;11.476;2023-07-31T08:47:15;5.72;;;2.67;;
49488;SDS011;35382;51.484;11.476;2023-07-31T08:49:43;5.70;;;2.80;;
49488;SDS011;35382;51.484;11.476;2023-07-31T08:52:10;7.15;;;3.28;;
49488;SDS011;35382;51.484;11.476;2023-07-31T08:54:35;5.07;;;2.70;;
49488;SDS011;35382;51.484;11.476;2023-07-31T08:57:00;5.93;;;2.60;;
49488;SDS011;35382;51.484;11.476;2023-07-31T08:59:29;5.50;;;3.03;;
49488;SDS011;35382;51.484;11.476;2023-07-31T09:01:58;8.02;;;3.15;;
49488;SDS011;35382;51.484;11.476;2023-07-31T09:04:30;9.73;;;3.38;;
49488;SDS011;35382;51.484;11.476;2023-07-31T09:06:57;9.57;;;3.00;;
49488;SDS011;35382;51.484;11.476;2023-07-31T09:09:25;7.88;;;3.25;;
49488;SDS011;35382;51.484;11.476;2023-07-31T09:11:51;6.30;;;3.10;;
49488;SDS011;35382;51.484;11.476;2023-07-31T09:14:17;5.95;;;2.70;;
49488;SDS011;35382;51.484;11.476;2023-07-31T09:16:56;7.82;;;3.13;;
49488;SDS011;35382;51.484;11.476;2023-07-31T09:19:27;8.60;;;2.90;;
49488;SDS011;35382;51.484;11.476;2023-07-31T09:21:55;7.55;;;3.10;;
49488;SDS011;35382;51.484;11.476;2023-07-31T09:24:30;5.73;;;2.63;;
49488;SDS011;35382;51.484;11.476;2023-07-31T09:26:58;6.00;;;3.00;;
49488;SDS011;35382;51.484;11.476;2023-07-31T09:29:24;7.57;;;3.03;;
49488;SDS011;35382;51.484;11.476;2023-07-31T09:31:51;5.82;;;2.60;;
49488;SDS011;35382;51.484;11.476;2023-07-31T09:34:16;4.60;;;2.60;;
49488;SDS011;35382;51.484;11.476;2023-07-31T09:36:51;8.43;;;2.57;;
49488;SDS011;35382;51.484;11.476;2023-07-31T09:39:17;5.00;;;2.22;;
49488;SDS011;35382;51.484;11.476;2023-07-31T09:41:44;7.38;;;2.58;;
49488;SDS011;35382;51.484;11.476;2023-07-31T09:44:10;5.32;;;2.40;;
49488;SDS011;35382;51.484;11.476;2023-07-31T09:46:36;6.20;;;2.57;;
49488;SDS011;35382;51.484;11.476;2023-07-31T09:49:06;5.83;;;2.73;;
49488;SDS011;35382;51.484;11.476;2023-07-31T09:51:32;8.07;;;2.55;;
49488;SDS011;35382;51.484;11.476;2023-07-31T09:53:58;5.70;;;2.47;;
49488;SDS011;35382;51.484;11.476;2023-07-31T09:56:24;6.65;;;2.78;;
49488;SDS011;35382;51.484;11.476;2023-07-31T09:58:52;6.80;;;2.80;;
49488;SDS011;35382;51.484;11.476;2023-07-31T10:01:19;6.20;;;2.83;;
49488;SDS011;35382;51.484;11.476;2023-07-31T10:03:44;6.77;;;2.60;;
49488;SDS011;35382;51.484;11.476;2023-07-31T10:06:11;5.90;;;2.88;;
49488;SDS011;35382;51.484;11.476;2023-07-31T10:11:04;8.50;;;2.88;;
49488;SDS011;35382;51.484;11.476;2023-07-31T10:13:31;9.07;;;2.60;;
49488;SDS011;35382;51.484;11.476;2023-07-31T10:15:58;5.60;;;2.70;;
49488;SDS011;35382;51.484;11.476;2023-07-31T10:18:26;4.55;;;2.30;;
49488;SDS011;35382;51.484;11.476;2023-07-31T10:20:52;5.75;;;2.40;;
49488;SDS011;35382;51.484;11.476;2023-07-31T10:23:18;8.45;;;3.22;;
49488;SDS011;35382;51.484;11.476;2023-07-31T10:25:44;7.50;;;2.90;;
49488;SDS011;35382;51.484;11.476;2023-07-31T10:28:10;7.90;;;2.95;;
49488;SDS011;35382;51.484;11.476;2023-07-31T10:30:36;11.83;;;3.40;;
49488;SDS011;35382;51.484;11.476;2023-07-31T10:33:03;7.57;;;2.65;;
49488;SDS011;35382;51.484;11.476;2023-07-31T10:35:29;6.30;;;2.60;;
49488;SDS011;35382;51.484;11.476;2023-07-31T10:37:54;8.50;;;3.03;;
49488;SDS011;35382;51.484;11.476;2023-07-31T10:40:26;8.90;;;3.05;;
49488;SDS011;35382;51.484;11.476;2023-07-31T10:42:54;6.93;;;2.75;;
49488;SDS011;35382;51.484;11.476;2023-07-31T10:47:49;5.95;;;2.85;;
49488;SDS011;35382;51.484;11.476;2023-07-31T10:50:19;7.40;;;2.90;;
49488;SDS011;35382;51.484;11.476;2023-07-31T10:52:46;7.07;;;3.03;;
49488;SDS011;35382;51.484;11.476;2023-07-31T10:55:24;6.97;;;3.30;;
49488;SDS011;35382;51.484;11.476;2023-07-31T10:57:56;7.55;;;3.30;;
49488;SDS011;35382;51.484;11.476;2023-07-31T11:00:26;7.60;;;3.35;;
49488;SDS011;35382;51.484;11.476;2023-07-31T11:08:36;7.65;;;2.95;;
49488;SDS011;35382;51.484;11.476;2023-07-31T11:11:09;6.07;;;3.00;;
49488;SDS011;35382;51.484;11.476;2023-07-31T11:13:46;6.75;;;2.45;;
49488;SDS011;35382;51.484;11.476;2023-07-31T11:16:12;8.98;;;2.80;;
49488;SDS011;35382;51.484;11.476;2023-07-31T11:18:43;5.50;;;2.65;;
49488;SDS011;35382;51.484;11.476;2023-07-31T11:21:13;7.35;;;2.88;;
49488;SDS011;35382;51.484;11.476;2023-07-31T11:23:39;7.10;;;3.00;;
49488;SDS011;35382;51.484;11.476;2023-07-31T11:26:05;8.30;;;3.10;;
49488;SDS011;35382;51.484;11.476;2023-07-31T11:28:32;7.93;;;3.17;;
49488;SDS011;35382;51.484;11.476;2023-07-31T11:33:23;12.37;;;3.03;;
49488;SDS011;35382;51.484;11.476;2023-07-31T11:35:49;8.80;;;3.40;;
49488;SDS011;35382;51.484;11.476;2023-07-31T11:38:21;8.13;;;3.27;;
49488;SDS011;35382;51.484;11.476;2023-07-31T11:40:47;6.22;;;3.10;;
49488;SDS011;35382;51.484;11.476;2023-07-31T11:43:13;6.03;;;2.80;;
49488;SDS011;35382;51.484;11.476;2023-07-31T11:45:38;13.37;;;3.93;;
49488;SDS011;35382;51.484;11.476;2023-07-31T11:48:05;10.98;;;3.42;;
49488;SDS011;35382;51.484;11.476;2023-07-31T11:50:30;6.23;;;3.07;;
49488;SDS011;35382;51.484;11.476;2023-07-31T11:52:59;9.07;;;2.78;;
49488;SDS011;35382;51.484;11.476;2023-07-31T11:55:26;6.88;;;2.90;;
49488;SDS011;35382;51.484;11.476;2023-07-31T11:57:52;8.13;;;3.27;;
49488;SDS011;35382;51.484;11.476;2023-07-31T12:00:19;8.73;;;3.42;;
49488;SDS011;35382;51.484;11.476;2023-07-31T12:02:44;6.70;;;2.60;;
49488;SDS011;35382;51.484;11.476;2023-07-31T12:05:11;7.60;;;3.13;;
49488;SDS011;35382;51.484;11.476;2023-07-31T12:07:50;5.95;;;2.78;;
49488;SDS011;35382;51.484;11.476;2023-07-31T12:10:29;6.53;;;3.10;;
49488;SDS011;35382;51.484;11.476;2023-07-31T12:12:59;8.35;;;3.22;;
49488;SDS011;35382;51.484;11.476;2023-07-31T12:18:04;6.70;;;3.30;;
49488;SDS011;35382;51.484;11.476;2023-07-31T12:20:30;6.97;;;2.75;;
49488;SDS011;35382;51.484;11.476;2023-07-31T12:22:56;8.60;;;3.00;;
49488;SDS011;35382;51.484;11.476;2023-07-31T12:25:21;6.90;;;3.17;;
49488;SDS011;35382;51.484;11.476;2023-07-31T12:27:47;8.07;;;2.97;;
49488;SDS011;35382;51.484;11.476;2023-07-31T12:30:28;7.93;;;3.00;;
49488;SDS011;35382;51.484;11.476;2023-07-31T12:32:57;8.43;;;3.75;;
49488;SDS011;35382;51.484;11.476;2023-07-31T12:35:33;7.50;;;2.80;;
49488;SDS011;35382;51.484;11.476;2023-07-31T12:38:03;11.00;;;2.85;;
49488;SDS011;35382;51.484;11.476;2023-07-31T12:40:28;8.38;;;2.72;;
49488;SDS011;35382;51.484;11.476;2023-07-31T12:42:53;6.87;;;2.73;;
49488;SDS011;35382;51.484;11.476;2023-07-31T12:45:19;6.57;;;4.00;;
49488;SDS011;35382;51.484;11.476;2023-07-31T12:47:44;6.07;;;2.70;;
49488;SDS011;35382;51.484;11.476;2023-07-31T12:50:10;5.77;;;2.90;;
49488;SDS011;35382;51.484;11.476;2023-07-31T12:52:35;7.27;;;3.00;;
49488;SDS011;35382;51.484;11.476;2023-07-31T12:55:00;7.33;;;2.90;;
49488;SDS011;35382;51.484;11.476;2023-07-31T12:57:26;7.10;;;2.77;;
49488;SDS011;35382;51.484;11.476;2023-07-31T12:59:56;5.30;;;2.60;;
49488;SDS011;35382;51.484;11.476;2023-07-31T13:02:22;7.60;;;3.03;;
49488;SDS011;35382;51.484;11.476;2023-07-31T13:04:47;9.23;;;3.10;;
49488;SDS011;35382;51.484;11.476;2023-07-31T13:07:14;6.20;;;2.90;;
49488;SDS011;35382;51.484;11.476;2023-07-31T13:09:40;6.53;;;2.50;;
49488;SDS011;35382;51.484;11.476;2023-07-31T13:12:05;4.70;;;2.13;;
49488;SDS011;35382;51.484;11.476;2023-07-31T13:14:31;5.40;;;2.60;;
49488;SDS011;35382;51.484;11.476;2023-07-31T13:16:57;4.23;;;2.23;;
49488;SDS011;35382;51.484;11.476;2023-07-31T13:19:22;8.07;;;2.27;;
49488;SDS011;35382;51.484;11.476;2023-07-31T13:21:47;6.43;;;2.27;;
49488;SDS011;35382;51.484;11.476;2023-07-31T13:24:13;6.83;;;2.20;;
49488;SDS011;35382;51.484;11.476;2023-07-31T13:26:38;5.27;;;2.57;;
49488;SDS011;35382;51.484;11.476;2023-07-31T13:29:04;4.60;;;2.60;;
49488;SDS011;35382;51.484;11.476;2023-07-31T13:31:29;5.83;;;2.30;;
49488;SDS011;35382;51.484;11.476;2023-07-31T13:33:54;6.03;;;2.20;;
49488;SDS011;35382;51.484;11.476;2023-07-31T13:36:20;5.73;;;2.20;;
49488;SDS011;35382;51.484;11.476;2023-07-31T13:38:46;5.30;;;2.30;;
49488;SDS011;35382;51.484;11.476;2023-07-31T13:41:12;6.77;;;2.47;;
49488;SDS011;35382;51.484;11.476;2023-07-31T13:43:37;5.53;;;2.30;;
49488;SDS011;35382;51.484;11.476;2023-07-31T13:46:03;4.13;;;2.17;;
49488;SDS011;35382;51.484;11.476;2023-07-31T13:48:29;5.17;;;2.20;;
49488;SDS011;35382;51.484;11.476;2023-07-31T13:50:54;5.63;;;2.37;;
49488;SDS011;35382;51.484;11.476;2023-07-31T13:53:19;5.17;;;2.00;;
49488;SDS011;35382;51.484;11.476;2023-07-31T13:55:45;7.73;;;2.07;;
49488;SDS011;35382;51.484;11.476;2023-07-31T13:58:10;6.90;;;2.50;;
49488;SDS011;35382;51.484;11.476;2023-07-31T14:00:35;4.37;;;1.97;;
49488;SDS011;35382;51.484;11.476;2023-07-31T14:03:01;6.00;;;2.20;;
49488;SDS011;35382;51.484;11.476;2023-07-31T14:05:26;6.20;;;2.17;;
49488;SDS011;35382;51.484;11.476;2023-07-31T14:07:52;3.83;;;2.00;;
49488;SDS011;35382;51.484;11.476;2023-07-31T14:10:17;6.17;;;2.50;;
49488;SDS011;35382;51.484;11.476;2023-07-31T14:12:43;5.40;;;2.43;;
49488;SDS011;35382;51.484;11.476;2023-07-31T14:15:08;7.43;;;2.03;;
49488;SDS011;35382;51.484;11.476;2023-07-31T14:17:34;5.28;;;2.40;;
49488;SDS011;35382;51.484;11.476;2023-07-31T14:20:00;6.27;;;2.43;;
49488;SDS011;35382;51.484;11.476;2023-07-31T14:22:30;6.35;;;2.33;;
49488;SDS011;35382;51.484;11.476;2023-07-31T14:24:56;5.25;;;2.20;;
49488;SDS011;35382;51.484;11.476;2023-07-31T14:27:22;6.03;;;2.77;;
49488;SDS011;35382;51.484;11.476;2023-07-31T14:29:47;6.33;;;2.00;;
49488;SDS011;35382;51.484;11.476;2023-07-31T14:32:12;4.83;;;2.33;;
49488;SDS011;35382;51.484;11.476;2023-07-31T14:34:38;6.23;;;2.60;;
49488;SDS011;35382;51.484;11.476;2023-07-31T14:37:03;6.87;;;2.73;;
49488;SDS011;35382;51.484;11.476;2023-07-31T14:39:29;5.47;;;2.37;;
49488;SDS011;35382;51.484;11.476;2023-07-31T14:41:54;8.90;;;2.87;;
49488;SDS011;35382;51.484;11.476;2023-07-31T14:44:20;6.17;;;2.70;;
49488;SDS011;35382;51.484;11.476;2023-07-31T14:46:45;8.20;;;2.93;;
49488;SDS011;35382;51.484;11.476;2023-07-31T14:49:13;6.15;;;2.80;;
49488;SDS011;35382;51.484;11.476;2023-07-31T14:51:39;5.73;;;2.90;;